Time;durP1;ratioP1;P1;durP2;ratioP2;P2;SDS_P1;SDS_P2;PMS_P1;PMS_P2;Temp;Humidity;BMP_temperature;BMP_pressure;BME280_temperature;BME280_humidity;BME280_pressure;Samples;Min_cycle;Max_cycle;Signal;HPM_P1;HPM_P2
2022/11/03 00:02:04;;;;;;;9.77;1.25;;;11.60;99.90;;;;;;5105789;28;20449;-68
2022/11/03 00:04:29;;;;;;;8.43;2.42;;;11.60;99.90;;;;;;5106318;28;20031;-69
2022/11/03 00:06:55;;;;;;;12.85;1.48;;;11.60;99.90;;;;;;5106355;27;20411;-68
2022/11/03 00:09:22;;;;;;;7.90;1.40;;;11.50;99.90;;;;;;5104918;28;20118;-68
2022/11/03 00:11:49;;;;;;;7.03;1.75;;;11.50;99.90;;;;;;5107018;28;20115;-70
2022/11/03 00:14:15;;;;;;;8.23;1.13;;;11.50;99.90;;;;;;5105825;28;20893;-69
2022/11/03 00:16:42;;;;;;;7.85;1.15;;;11.60;99.90;;;;;;5100813;28;20552;-68
2022/11/03 00:19:08;;;;;;;16.33;2.20;;;11.50;99.90;;;;;;5106024;27;20046;-69
2022/11/03 00:21:34;;;;;;;9.23;1.75;;;11.50;99.90;;;;;;5106593;28;20374;-69
2022/11/03 00:24:03;;;;;;;5.75;0.98;;;11.50;99.90;;;;;;5103804;28;20122;-69
2022/11/03 00:26:31;;;;;;;8.43;1.35;;;11.60;99.90;;;;;;5106283;28;20065;-69
2022/11/03 00:28:59;;;;;;;8.25;1.73;;;11.60;99.90;;;;;;5106644;27;20044;-70
2022/11/03 00:31:30;;;;;;;7.80;1.35;;;11.60;99.90;;;;;;5086111;28;20467;-71
2022/11/03 00:33:57;;;;;;;9.18;1.20;;;11.60;99.90;;;;;;5085187;28;20044;-71
2022/11/03 00:36:25;;;;;;;10.35;1.02;;;11.50;99.90;;;;;;5085335;28;20028;-71
2022/11/03 00:38:51;;;;;;;11.77;1.65;;;11.50;99.90;;;;;;5085876;28;20028;-68
2022/11/03 00:41:19;;;;;;;8.65;1.08;;;11.50;99.90;;;;;;5085555;28;20082;-69
2022/11/03 00:43:45;;;;;;;5.45;1.35;;;11.50;99.90;;;;;;5085670;28;20042;-69
2022/11/03 00:46:12;;;;;;;6.97;1.35;;;11.40;99.90;;;;;;5085485;28;20093;-69
2022/11/03 00:48:37;;;;;;;8.48;1.40;;;11.50;99.90;;;;;;5085979;28;20043;-69
2022/11/03 00:51:15;;;;;;;6.93;1.23;;;11.40;99.90;;;;;;5085161;28;20039;-71
2022/11/03 00:53:52;;;;;;;12.32;1.63;;;11.50;99.90;;;;;;5080327;28;20093;-70
2022/11/03 00:56:32;;;;;;;10.27;1.52;;;11.50;99.90;;;;;;5089283;28;20384;-70
2022/11/03 00:58:59;;;;;;;5.43;1.50;;;11.40;99.90;;;;;;5083967;28;20086;-69
2022/11/03 01:01:27;;;;;;;11.30;1.65;;;11.40;99.90;;;;;;5084371;28;20032;-70
2022/11/03 01:06:51;;;;;;;9.40;1.60;;;11.40;99.90;;;;;;5102537;27;20038;-69
2022/11/03 01:09:17;;;;;;;6.15;1.13;;;11.40;99.90;;;;;;5098601;27;20044;-70
2022/11/03 01:11:56;;;;;;;9.60;1.23;;;11.40;99.90;;;;;;5096082;27;20032;-71
2022/11/03 01:14:22;;;;;;;4.05;1.10;;;11.50;99.90;;;;;;5084068;28;20032;-69
2022/11/03 01:16:48;;;;;;;9.30;1.52;;;11.40;99.90;;;;;;5086854;28;20047;-70
2022/11/03 01:19:13;;;;;;;9.70;1.25;;;11.40;99.90;;;;;;5083364;28;20040;-68
2022/11/03 01:21:39;;;;;;;9.00;1.35;;;11.40;99.90;;;;;;5084315;28;20047;-68
2022/11/03 01:24:05;;;;;;;4.80;0.80;;;11.40;99.90;;;;;;5084741;28;20096;-69
2022/11/03 01:26:31;;;;;;;3.97;1.13;;;11.50;99.90;;;;;;5085758;28;20036;-69
2022/11/03 01:28:58;;;;;;;6.88;1.10;;;11.50;99.90;;;;;;5089153;28;20124;-68
2022/11/03 01:31:25;;;;;;;6.47;1.30;;;11.40;99.90;;;;;;5087715;28;20533;-71
2022/11/03 01:33:52;;;;;;;4.95;1.65;;;11.40;99.90;;;;;;5089164;28;20024;-71
2022/11/03 01:36:19;;;;;;;6.07;0.90;;;11.40;99.90;;;;;;5086906;28;21438;-70
2022/11/03 01:38:45;;;;;;;8.35;1.42;;;11.40;99.90;;;;;;5089507;28;20074;-68
2022/11/03 01:41:22;;;;;;;12.00;1.35;;;11.40;99.90;;;;;;5087160;28;20062;-69
2022/11/03 01:44:10;;;;;;;8.18;1.50;;;11.40;99.90;;;;;;5088852;28;20032;-68
2022/11/03 01:46:59;;;;;;;12.02;1.50;;;11.40;99.90;;;;;;5084562;28;20427;-68
2022/11/03 01:49:31;;;;;;;9.85;1.30;;;11.30;99.90;;;;;;5087155;28;20601;-70
2022/11/03 01:52:13;;;;;;;9.10;1.20;;;11.40;99.90;;;;;;5088874;28;20036;-70
2022/11/03 01:54:41;;;;;;;10.18;1.40;;;11.30;99.90;;;;;;5084965;28;20028;-69
2022/11/03 01:57:12;;;;;;;6.90;0.90;;;11.30;99.90;;;;;;5083141;28;20039;-70
2022/11/03 01:59:40;;;;;;;9.20;1.27;;;11.30;99.90;;;;;;5089002;28;20036;-69
2022/11/03 02:02:05;;;;;;;5.40;1.45;;;11.30;99.90;;;;;;5084642;28;20067;-68
2022/11/03 02:04:33;;;;;;;11.85;1.25;;;11.30;99.90;;;;;;5088669;28;20086;-69
2022/11/03 02:07:23;;;;;;;11.07;1.40;;;11.30;99.90;;;;;;5088223;28;20036;-70
2022/11/03 02:09:49;;;;;;;13.27;1.23;;;11.30;99.90;;;;;;5087124;28;20051;-69
2022/11/03 02:12:16;;;;;;;4.30;0.90;;;11.30;99.90;;;;;;5087765;28;20399;-68
2022/11/03 02:14:47;;;;;;;4.28;1.65;;;11.20;99.90;;;;;;5088507;28;20024;-69
2022/11/03 02:17:14;;;;;;;14.65;1.83;;;11.30;99.90;;;;;;5087567;28;20659;-69
2022/11/03 02:19:54;;;;;;;7.85;1.33;;;11.30;99.90;;;;;;5086250;28;20028;-69
2022/11/03 02:22:28;;;;;;;12.40;1.40;;;11.30;99.90;;;;;;5085917;28;20040;-69
2022/11/03 02:25:16;;;;;;;8.18;1.30;;;11.30;99.90;;;;;;5088082;28;20060;-68
2022/11/03 02:27:42;;;;;;;4.80;1.35;;;11.40;99.90;;;;;;5083684;28;20528;-68
2022/11/03 02:30:09;;;;;;;9.77;1.83;;;11.40;99.90;;;;;;5087908;28;20032;-69
2022/11/03 02:32:56;;;;;;;11.50;1.30;;;11.40;99.90;;;;;;5086348;28;20020;-68
2022/11/03 02:35:32;;;;;;;11.55;1.63;;;11.40;99.90;;;;;;5068102;28;20048;-69
2022/11/03 02:38:01;;;;;;;7.18;1.58;;;11.40;99.90;;;;;;5087619;28;20131;-70
2022/11/03 02:40:34;;;;;;;9.75;1.55;;;11.40;99.90;;;;;;5085950;28;20121;-69
2022/11/03 02:43:02;;;;;;;7.35;1.65;;;11.40;99.90;;;;;;5085679;28;20032;-69
2022/11/03 02:45:29;;;;;;;11.30;1.42;;;11.40;99.90;;;;;;5086654;28;20040;-68
2022/11/03 02:47:58;;;;;;;5.80;0.77;;;11.50;99.90;;;;;;5087952;28;20086;-69
2022/11/03 02:50:32;;;;;;;10.32;0.95;;;11.40;99.90;;;;;;5086014;28;20114;-68
2022/11/03 02:52:58;;;;;;;11.77;1.05;;;11.50;99.90;;;;;;5085621;28;20127;-70
2022/11/03 02:55:27;;;;;;;5.22;1.38;;;11.50;99.90;;;;;;5086255;28;20119;-70
2022/11/03 02:57:59;;;;;;;5.82;1.00;;;11.50;99.90;;;;;;5088125;28;20068;-70
2022/11/03 03:00:26;;;;;;;7.85;1.35;;;11.50;99.90;;;;;;5085351;28;20089;-70
2022/11/03 03:03:15;;;;;;;4.60;1.58;;;11.50;99.90;;;;;;5087058;28;20024;-70
2022/11/03 03:05:44;;;;;;;9.18;1.10;;;11.60;99.90;;;;;;5103337;28;20039;-69
2022/11/03 03:08:11;;;;;;;9.40;1.42;;;11.60;99.90;;;;;;5106948;28;20050;-69
2022/11/03 03:10:41;;;;;;;3.67;1.27;;;11.60;99.90;;;;;;5108026;27;20027;-70
2022/11/03 03:13:09;;;;;;;11.77;2.03;;;11.60;99.90;;;;;;5105124;28;20512;-69
2022/11/03 03:15:52;;;;;;;15.25;1.30;;;11.60;99.90;;;;;;5107313;28;20047;-69
2022/11/03 03:18:23;;;;;;;4.45;0.93;;;11.60;99.90;;;;;;5110045;27;20024;-69
2022/11/03 03:21:04;;;;;;;6.57;1.02;;;11.70;99.90;;;;;;5104629;28;20157;-69
2022/11/03 03:23:39;;;;;;;4.72;0.98;;;11.70;99.90;;;;;;5101207;27;20028;-69
2022/11/03 03:26:16;;;;;;;13.23;1.83;;;11.60;99.90;;;;;;5102879;27;20032;-69
2022/11/03 03:28:48;;;;;;;13.65;0.93;;;11.70;99.90;;;;;;5107833;28;20039;-69
2022/11/03 03:31:15;;;;;;;7.13;1.10;;;11.80;99.90;;;;;;5104949;28;20428;-68
2022/11/03 03:33:41;;;;;;;8.73;1.27;;;11.70;99.90;;;;;;5106604;28;20027;-69
2022/11/03 03:36:13;;;;;;;9.18;0.90;;;11.70;99.90;;;;;;5106154;28;20136;-68
2022/11/03 03:38:43;;;;;;;4.93;0.73;;;11.70;99.90;;;;;;5107177;27;20035;-70
2022/11/03 03:41:12;;;;;;;11.35;2.20;;;11.80;99.90;;;;;;5106050;27;20031;-71
2022/11/03 03:43:39;;;;;;;7.53;1.10;;;11.80;99.90;;;;;;5106767;28;20036;-70
2022/11/03 03:46:08;;;;;;;6.43;1.20;;;11.80;99.90;;;;;;5106304;28;20514;-69
2022/11/03 03:48:34;;;;;;;3.53;0.90;;;11.80;99.90;;;;;;5105478;28;20578;-71
2022/11/03 03:51:01;;;;;;;10.25;1.58;;;11.80;99.90;;;;;;5104075;28;20034;-69
2022/11/03 03:53:28;;;;;;;5.10;0.68;;;11.80;99.90;;;;;;5106066;28;20043;-69
2022/11/03 03:55:54;;;;;;;6.10;0.93;;;11.80;99.90;;;;;;5105273;28;20101;-68
2022/11/03 03:58:20;;;;;;;7.47;1.75;;;11.90;99.90;;;;;;5073323;28;20141;-70
2022/11/03 04:00:46;;;;;;;8.57;1.23;;;11.80;99.90;;;;;;5084919;28;20047;-69
2022/11/03 04:03:23;;;;;;;11.02;1.40;;;11.90;99.90;;;;;;5085149;28;20132;-69
2022/11/03 04:05:49;;;;;;;9.38;0.95;;;11.80;99.90;;;;;;5085949;28;20564;-70
2022/11/03 04:08:15;;;;;;;7.18;1.20;;;11.80;99.90;;;;;;5085153;28;20032;-70
2022/11/03 04:22:15;;;;;;;11.48;1.63;;;11.80;99.90;;;;;;5084942;28;20511;-71
2022/11/03 04:24:25;;;;;;;8.05;1.20;;;11.90;99.90;;;;;;5084890;28;20093;-69
2022/11/03 04:26:51;;;;;;;8.30;1.80;;;11.90;99.90;;;;;;5084697;28;20040;-69
2022/11/03 04:29:16;;;;;;;7.93;2.00;;;11.90;99.90;;;;;;5085115;28;20047;-69
2022/11/03 04:31:43;;;;;;;9.10;1.20;;;11.90;99.90;;;;;;5084446;28;20044;-70
2022/11/03 04:34:11;;;;;;;4.95;1.08;;;11.90;99.90;;;;;;5084505;28;20086;-70
2022/11/03 04:36:37;;;;;;;7.18;1.25;;;11.90;99.90;;;;;;5084495;28;20040;-72
2022/11/03 04:39:12;;;;;;;7.28;0.98;;;11.90;99.90;;;;;;5085161;28;20709;-69
2022/11/03 04:41:37;;;;;;;7.22;1.00;;;11.80;99.90;;;;;;5084395;28;20500;-69
2022/11/03 04:44:10;;;;;;;9.48;1.80;;;11.80;99.90;;;;;;5084086;28;20244;-68
2022/11/03 04:46:36;;;;;;;9.85;1.23;;;11.80;99.90;;;;;;5086350;28;20111;-69
2022/11/03 04:49:04;;;;;;;7.75;1.48;;;11.80;99.90;;;;;;5084639;28;20747;-69
2022/11/03 04:51:33;;;;;;;4.80;0.93;;;11.80;99.90;;;;;;5085201;28;20073;-69
2022/11/03 04:54:12;;;;;;;6.57;0.73;;;11.80;99.90;;;;;;5084568;28;20032;-69
2022/11/03 04:56:39;;;;;;;4.75;1.40;;;11.70;99.90;;;;;;5105668;27;20107;-71
2022/11/03 04:59:10;;;;;;;6.68;0.88;;;11.80;99.90;;;;;;5104558;28;20032;-67
2022/11/03 05:01:35;;;;;;;;;;;11.70;99.90;;;;;;5106707;28;20024;-70
2022/11/03 05:04:01;;;;;;;5.53;1.00;;;11.70;99.90;;;;;;5108702;28;19922;-68
2022/11/03 05:06:28;;;;;;;9.32;1.20;;;11.70;99.90;;;;;;5110186;28;20038;-68
2022/11/03 05:09:10;;;;;;;11.55;2.63;;;11.70;99.90;;;;;;5104190;28;20044;-69
2022/11/03 05:11:38;;;;;;;12.27;2.42;;;11.70;99.90;;;;;;5103054;27;20438;-68
2022/11/03 05:14:19;;;;;;;11.38;1.35;;;11.70;99.90;;;;;;5108456;27;20110;-72
2022/11/03 05:16:46;;;;;;;7.35;0.98;;;11.70;99.90;;;;;;5108725;28;20142;-69
2022/11/03 05:19:35;;;;;;;6.30;1.33;;;11.70;99.90;;;;;;5089968;28;20040;-70
2022/11/03 05:22:02;;;;;;;11.70;2.28;;;11.80;99.90;;;;;;5085523;28;20134;-69
2022/11/03 05:24:29;;;;;;;9.00;1.25;;;11.80;99.90;;;;;;5089008;28;20039;-69
2022/11/03 05:26:57;;;;;;;9.00;0.93;;;11.80;99.90;;;;;;5092952;28;20040;-69
2022/11/03 05:29:35;;;;;;;6.43;1.88;;;11.80;99.90;;;;;;5104271;27;20039;-69
2022/11/03 05:32:00;;;;;;;5.85;0.90;;;11.80;99.90;;;;;;5104294;27;20056;-68
2022/11/03 05:34:40;;;;;;;17.02;0.93;;;11.90;99.90;;;;;;5106586;27;20452;-69
2022/11/03 05:37:05;;;;;;;6.33;1.67;;;11.90;99.90;;;;;;5098789;28;20032;-70
2022/11/03 05:39:39;;;;;;;4.50;0.77;;;11.90;99.90;;;;;;5100571;28;20028;-70
2022/11/03 05:42:35;;;;;;;6.75;0.90;;;11.90;99.90;;;;;;5104730;28;20122;-69
2022/11/03 05:45:24;;;;;;;10.70;1.08;;;11.90;99.90;;;;;;5104785;27;20139;-68
2022/11/03 05:47:53;;;;;;;7.38;1.27;;;11.90;99.90;;;;;;5114965;27;20031;-70
2022/11/03 05:50:24;;;;;;;4.53;0.75;;;11.90;99.90;;;;;;5107706;27;20948;-70
2022/11/03 05:53:13;;;;;;;5.22;0.75;;;11.90;99.90;;;;;;5107843;28;20027;-69
2022/11/03 05:55:39;;;;;;;5.82;1.45;;;11.90;99.90;;;;;;5101377;27;20074;-69
2022/11/03 05:58:29;;;;;;;8.95;1.13;;;12.00;99.90;;;;;;5088051;28;20085;-70
2022/11/03 06:00:56;;;;;;;6.68;1.02;;;12.00;99.90;;;;;;5085858;28;20040;-69
2022/11/03 06:03:25;;;;;;;5.13;0.93;;;12.00;99.90;;;;;;5082052;28;20463;-70
2022/11/03 06:05:52;;;;;;;11.07;1.45;;;12.00;99.90;;;;;;5084981;28;20040;-69
2022/11/03 06:08:20;;;;;;;4.57;1.63;;;12.00;99.90;;;;;;5084364;28;20051;-69
2022/11/03 06:10:50;;;;;;;7.35;0.80;;;12.10;99.90;;;;;;5086641;28;20047;-71
2022/11/03 06:13:28;;;;;;;6.60;1.50;;;12.10;99.90;;;;;;5083230;28;20051;-72
2022/11/03 06:16:01;;;;;;;7.47;0.70;;;12.10;99.90;;;;;;5083544;28;20136;-70
2022/11/03 06:18:34;;;;;;;6.03;0.75;;;12.10;99.90;;;;;;5079465;28;20039;-68
2022/11/03 06:21:20;;;;;;;2.85;1.00;;;12.10;99.90;;;;;;5078253;28;20098;-69
2022/11/03 06:23:46;;;;;;;2.88;0.63;;;12.10;99.90;;;;;;5075157;28;20761;-69
2022/11/03 06:26:21;;;;;;;6.55;1.25;;;12.10;99.90;;;;;;5078158;28;20067;-69
2022/11/03 06:28:47;;;;;;;3.10;0.77;;;12.10;99.90;;;;;;5083352;28;20075;-70
2022/11/03 06:31:17;;;;;;;8.35;1.50;;;12.10;99.90;;;;;;5078704;28;20090;-71
2022/11/03 06:33:43;;;;;;;1.85;0.75;;;12.10;99.90;;;;;;5077530;28;20115;-68
2022/11/03 06:36:20;;;;;;;4.03;0.98;;;12.20;99.90;;;;;;5079892;28;20410;-69
2022/11/03 06:38:55;;;;;;;6.93;1.15;;;12.20;99.90;;;;;;5087235;28;20417;-69
2022/11/03 06:41:25;;;;;;;4.13;0.60;;;12.20;99.90;;;;;;5080281;28;20189;-70
2022/11/03 06:43:51;;;;;;;6.97;0.88;;;12.20;99.90;;;;;;5079586;28;20034;-68
2022/11/03 06:46:22;;;;;;;8.50;0.90;;;12.20;99.90;;;;;;5078962;28;20044;-70
2022/11/03 06:48:49;;;;;;;7.30;1.42;;;12.20;99.90;;;;;;5083324;28;20123;-69
2022/11/03 06:51:24;;;;;;;9.48;1.10;;;12.20;99.90;;;;;;5076331;28;20043;-69
2022/11/03 06:53:52;;;;;;;6.55;1.00;;;12.20;99.90;;;;;;5081104;28;20038;-69
2022/11/03 06:56:23;;;;;;;2.88;0.80;;;12.20;99.90;;;;;;5072246;28;20720;-70
2022/11/03 06:58:53;;;;;;;9.98;1.50;;;12.20;99.90;;;;;;5078086;28;20032;-70
2022/11/03 07:01:23;;;;;;;10.60;1.23;;;12.30;99.90;;;;;;5074036;27;20043;-68
2022/11/03 07:03:55;;;;;;;5.18;1.20;;;12.30;99.90;;;;;;5079043;28;20036;-68
2022/11/03 07:06:28;;;;;;;4.45;1.33;;;12.30;99.90;;;;;;5072726;28;20043;-70
2022/11/03 07:08:57;;;;;;;4.20;1.33;;;12.40;99.90;;;;;;5081608;28;20076;-69
2022/11/03 07:11:29;;;;;;;7.53;0.90;;;12.40;99.90;;;;;;5078347;28;20040;-70
2022/11/03 07:13:57;;;;;;;6.63;0.82;;;12.40;99.90;;;;;;5078160;28;20028;-70
2022/11/03 07:16:32;;;;;;;4.85;0.88;;;12.40;99.90;;;;;;5077033;28;20082;-69
2022/11/03 07:19:12;;;;;;;5.68;1.38;;;12.40;99.90;;;;;;5083163;28;20078;-70
2022/11/03 07:21:45;;;;;;;5.88;1.30;;;12.50;99.90;;;;;;5078199;28;20038;-69
2022/11/03 07:24:30;;;;;;;9.00;1.10;;;12.50;99.90;;;;;;5075842;28;20849;-70
2022/11/03 07:27:01;;;;;;;8.25;0.95;;;12.50;99.90;;;;;;5075818;28;20112;-70
2022/11/03 07:29:28;;;;;;;5.65;1.00;;;12.50;99.90;;;;;;5079738;28;20063;-70
2022/11/03 07:31:57;;;;;;;9.85;1.90;;;12.60;99.90;;;;;;5077331;28;20078;-69
2022/11/03 07:34:26;;;;;;;6.82;0.93;;;12.60;99.90;;;;;;5075237;28;20024;-71
2022/11/03 07:36:52;;;;;;;5.25;1.52;;;12.60;99.90;;;;;;5079036;28;20032;-71
2022/11/03 07:39:20;;;;;;;8.00;0.88;;;12.60;99.90;;;;;;5076983;28;20032;-70
2022/11/03 07:41:47;;;;;;;5.43;0.77;;;12.60;99.90;;;;;;5074809;28;20028;-70
2022/11/03 07:44:19;;;;;;;9.55;1.55;;;12.70;99.90;;;;;;5073086;28;20060;-69
2022/11/03 07:46:45;;;;;;;6.03;1.08;;;12.70;99.90;;;;;;5078530;28;20586;-70
2022/11/03 07:49:29;;;;;;;5.32;0.93;;;12.60;99.90;;;;;;5078542;28;20035;-69
2022/11/03 07:51:57;;;;;;;4.65;1.38;;;12.60;99.90;;;;;;5075153;28;20028;-70
2022/11/03 07:54:28;;;;;;;7.40;1.00;;;12.70;99.90;;;;;;5075254;28;20040;-71
2022/11/03 07:56:54;;;;;;;4.45;0.90;;;12.70;99.90;;;;;;5080539;28;20412;-69
2022/11/03 07:59:37;;;;;;;4.65;1.00;;;12.70;99.90;;;;;;5078474;28;20039;-70
2022/11/03 08:02:33;;;;;;;5.15;1.25;;;12.70;99.90;;;;;;5076041;28;20097;-69
2022/11/03 08:04:59;;;;;;;5.35;1.10;;;12.80;99.90;;;;;;5071573;28;20040;-75
2022/11/03 08:07:26;;;;;;;6.40;0.77;;;12.90;99.90;;;;;;5071221;28;20037;-69
2022/11/03 08:09:53;;;;;;;6.10;1.35;;;12.90;99.90;;;;;;5080190;28;20044;-71
2022/11/03 08:12:19;;;;;;;11.50;1.05;;;12.90;99.90;;;;;;5079512;28;20067;-70
2022/11/03 08:14:44;;;;;;;7.03;1.58;;;12.90;99.90;;;;;;5079876;28;20467;-71
2022/11/03 08:17:10;;;;;;;10.10;2.03;;;13.00;99.90;;;;;;5082297;28;20047;-70
2022/11/03 08:19:36;;;;;;;2.83;0.90;;;13.00;99.90;;;;;;5080167;28;20039;-69
2022/11/03 08:22:01;;;;;;;9.07;2.42;;;13.00;99.90;;;;;;5082002;28;20048;-70
2022/11/03 08:24:27;;;;;;;3.60;0.73;;;13.00;99.90;;;;;;5082162;28;20047;-69
2022/11/03 08:26:52;;;;;;;5.57;1.67;;;13.10;99.90;;;;;;5081195;28;20097;-70
2022/11/03 08:29:18;;;;;;;8.27;2.00;;;13.10;99.90;;;;;;5080698;28;20043;-68
2022/11/03 08:31:44;;;;;;;5.10;0.73;;;13.10;99.90;;;;;;5077586;28;20041;-69
2022/11/03 08:34:10;;;;;;;12.90;1.35;;;13.20;99.90;;;;;;5079656;28;20029;-69
2022/11/03 08:36:36;;;;;;;9.27;1.20;;;13.30;99.90;;;;;;5081161;28;20040;-69
2022/11/03 08:39:02;;;;;;;6.25;0.80;;;13.20;99.90;;;;;;5083506;28;20434;-69
2022/11/03 08:41:28;;;;;;;13.07;2.08;;;13.30;99.90;;;;;;5080897;28;20036;-69
2022/11/03 08:43:54;;;;;;;12.48;1.17;;;13.30;99.90;;;;;;5079102;28;20040;-71
2022/11/03 08:46:19;;;;;;;5.72;1.15;;;13.30;99.90;;;;;;5077471;28;20064;-71
2022/11/03 08:48:45;;;;;;;7.28;1.50;;;13.30;99.90;;;;;;5081498;28;20123;-69
2022/11/03 08:51:12;;;;;;;6.43;1.05;;;13.40;99.90;;;;;;5081518;28;20520;-70
2022/11/03 08:53:38;;;;;;;4.50;1.00;;;13.40;99.90;;;;;;5078268;28;20115;-70
2022/11/03 08:56:05;;;;;;;4.95;0.73;;;13.40;99.90;;;;;;5076721;28;20047;-70
2022/11/03 08:58:31;;;;;;;8.98;1.33;;;13.50;99.90;;;;;;5079393;28;20477;-70
2022/11/03 09:00:56;;;;;;;6.30;1.20;;;13.50;99.90;;;;;;5081405;28;20032;-70
2022/11/03 09:03:22;;;;;;;2.97;0.70;;;13.50;99.90;;;;;;5081566;28;20141;-69
2022/11/03 09:05:48;;;;;;;6.60;1.05;;;13.50;99.90;;;;;;5079637;28;20476;-70
2022/11/03 09:08:13;;;;;;;5.28;1.10;;;13.60;99.90;;;;;;5078607;28;20044;-70
2022/11/03 09:10:39;;;;;;;2.72;1.27;;;13.60;99.90;;;;;;5079622;28;20115;-70
2022/11/03 09:13:05;;;;;;;5.60;1.02;;;13.60;99.90;;;;;;5081155;28;20043;-72
2022/11/03 09:15:31;;;;;;;10.60;0.98;;;13.60;99.90;;;;;;5080125;28;20043;-71
2022/11/03 09:17:56;;;;;;;4.78;0.88;;;13.60;99.90;;;;;;5080579;28;20039;-70
2022/11/03 09:20:22;;;;;;;4.82;1.38;;;13.70;99.90;;;;;;5077011;28;20039;-70
2022/11/03 09:22:47;;;;;;;4.50;1.10;;;13.70;99.90;;;;;;5079830;28;20120;-69
2022/11/03 09:25:13;;;;;;;8.38;1.35;;;13.70;99.90;;;;;;5074340;28;20495;-69
2022/11/03 09:27:39;;;;;;;9.32;1.33;;;13.80;99.90;;;;;;5078222;28;20044;-69
2022/11/03 09:30:05;;;;;;;5.68;1.38;;;13.80;99.90;;;;;;5079536;28;20083;-69
2022/11/03 09:32:31;;;;;;;5.22;0.90;;;13.90;99.90;;;;;;5080890;28;20051;-69
2022/11/03 09:34:56;;;;;;;10.18;1.15;;;13.90;99.90;;;;;;5078700;28;20032;-69
2022/11/03 09:37:22;;;;;;;3.95;1.05;;;13.90;99.90;;;;;;5077377;28;20067;-71
2022/11/03 09:39:48;;;;;;;6.10;0.98;;;13.90;99.90;;;;;;5076135;28;20040;-70
2022/11/03 09:42:15;;;;;;;2.88;0.63;;;13.90;99.90;;;;;;5077330;28;20032;-69
2022/11/03 09:44:41;;;;;;;7.97;1.65;;;13.90;99.90;;;;;;5078003;28;20405;-69
2022/11/03 09:47:12;;;;;;;5.20;1.00;;;13.90;99.90;;;;;;5078650;28;20032;-70
2022/11/03 09:49:38;;;;;;;4.03;1.30;;;13.90;99.90;;;;;;5082290;28;20035;-69
2022/11/03 09:52:04;;;;;;;2.55;0.75;;;13.90;99.90;;;;;;5078770;28;20040;-69
2022/11/03 09:54:30;;;;;;;7.25;1.70;;;13.90;99.90;;;;;;5080854;28;20522;-70
2022/11/03 09:57:04;;;;;;;6.97;2.08;;;13.90;99.90;;;;;;5084196;28;20032;-70
2022/11/03 09:59:29;;;;;;;4.57;1.17;;;13.90;99.90;;;;;;5086089;28;20024;-71
2022/11/03 10:01:55;;;;;;;3.95;0.75;;;13.90;99.90;;;;;;5080778;28;20089;-70
2022/11/03 10:04:26;;;;;;;6.70;1.27;;;13.80;99.90;;;;;;5079790;28;20071;-69
2022/11/03 10:06:57;;;;;;;5.22;0.60;;;13.80;99.90;;;;;;5082184;28;20030;-69
2022/11/03 10:09:25;;;;;;;5.53;1.13;;;13.80;99.90;;;;;;5082008;28;20119;-69
2022/11/03 10:11:54;;;;;;;7.25;1.00;;;13.80;99.90;;;;;;5081875;28;20032;-70
2022/11/03 10:14:21;;;;;;;8.20;1.00;;;13.80;99.90;;;;;;5082497;28;20115;-69
2022/11/03 10:17:01;;;;;;;9.88;0.80;;;13.80;99.90;;;;;;5077735;28;20073;-69
2022/11/03 10:19:27;;;;;;;7.53;0.73;;;13.80;99.90;;;;;;5084300;28;20096;-70
2022/11/03 10:21:52;;;;;;;5.82;1.15;;;13.80;99.90;;;;;;5079686;28;20760;-70
2022/11/03 10:24:18;;;;;;;4.55;1.13;;;13.80;99.90;;;;;;5078874;28;20566;-69
2022/11/03 10:26:49;;;;;;;8.43;0.88;;;13.90;99.90;;;;;;5099527;27;20054;-68
2022/11/03 10:29:23;;;;;;;7.57;0.88;;;13.90;99.90;;;;;;5103711;27;20079;-69
2022/11/03 10:31:52;;;;;;;6.38;0.80;;;13.90;99.90;;;;;;5104117;27;20063;-69
2022/11/03 10:34:36;;;;;;;2.50;0.70;;;14.00;99.90;;;;;;5102571;27;20047;-70
2022/11/03 10:37:21;;;;;;;7.30;1.45;;;14.00;99.90;;;;;;5092905;27;20763;-69
2022/11/03 10:39:49;;;;;;;5.63;1.33;;;14.10;99.90;;;;;;5092962;27;20031;-69
2022/11/03 10:42:23;;;;;;;5.88;0.80;;;14.10;99.90;;;;;;5099105;27;20047;-68
2022/11/03 10:44:54;;;;;;;2.83;0.80;;;14.20;99.90;;;;;;5083461;28;20039;-70
2022/11/03 10:48:07;;;;;;;3.00;0.70;;;14.10;99.90;;;;;;5083102;28;20039;-71
2022/11/03 10:50:33;;;;;;;3.78;1.35;;;14.20;99.90;;;;;;5097132;28;20036;-70
2022/11/03 10:52:58;;;;;;;5.75;0.82;;;14.20;99.90;;;;;;5099281;28;20036;-70
2022/11/03 10:55:25;;;;;;;5.82;1.30;;;14.20;99.90;;;;;;5096281;28;20023;-69
2022/11/03 10:57:54;;;;;;;4.53;0.90;;;14.20;99.90;;;;;;5093624;28;20051;-68
2022/11/03 11:00:19;;;;;;;6.95;0.90;;;14.20;99.90;;;;;;5079732;28;20032;-69
2022/11/03 11:02:47;;;;;;;5.57;1.67;;;14.20;99.90;;;;;;5084141;28;20691;-69
2022/11/03 11:05:18;;;;;;;4.43;0.90;;;14.30;99.90;;;;;;5089974;27;20618;-69
2022/11/03 11:07:44;;;;;;;2.78;0.50;;;14.30;99.90;;;;;;5083429;28;20040;-69
2022/11/03 11:10:20;;;;;;;9.38;1.70;;;14.40;99.90;;;;;;5080799;28;20064;-69
2022/11/03 11:13:01;;;;;;;7.85;0.90;;;14.40;99.90;;;;;;5089401;27;20202;-70
2022/11/03 11:15:34;;;;;;;7.25;1.02;;;14.50;99.90;;;;;;5096454;28;20039;-68
2022/11/03 11:18:00;;;;;;;3.38;0.80;;;14.50;99.90;;;;;;5092788;28;20110;-70
2022/11/03 11:20:32;;;;;;;6.03;0.80;;;14.50;99.90;;;;;;5090546;27;20027;-69
2022/11/03 11:23:25;;;;;;;2.72;0.80;;;14.50;99.90;;;;;;5086895;27;20044;-68
2022/11/03 11:26:09;;;;;;;5.57;0.80;;;14.60;99.90;;;;;;5092575;27;20024;-69
2022/11/03 11:28:37;;;;;;;4.00;1.75;;;14.60;99.90;;;;;;5097744;28;20053;-68
2022/11/03 11:31:30;;;;;;;4.07;0.68;;;14.60;99.90;;;;;;5099353;28;20721;-68
2022/11/03 11:34:08;;;;;;;3.88;0.80;;;14.60;99.90;;;;;;5095982;28;20456;-71
2022/11/03 11:36:35;;;;;;;4.72;0.63;;;14.70;99.90;;;;;;5105783;27;20525;-69
2022/11/03 11:39:02;;;;;;;3.58;0.85;;;14.70;99.90;;;;;;5087103;27;20047;-70
2022/11/03 11:42:05;;;;;;;5.38;0.88;;;14.80;99.90;;;;;;5083230;27;20078;-68
2022/11/03 11:44:45;;;;;;;2.53;0.77;;;14.70;99.90;;;;;;5091248;27;20735;-69
2022/11/03 11:47:33;;;;;;;6.13;0.93;;;14.90;99.90;;;;;;5084857;28;20400;-69
2022/11/03 11:50:05;;;;;;;3.15;0.68;;;14.80;99.90;;;;;;5094643;27;20133;-70
2022/11/03 11:52:31;;;;;;;7.55;0.88;;;14.80;99.90;;;;;;5100466;28;20035;-69
2022/11/03 11:54:57;;;;;;;5.72;0.70;;;14.80;99.90;;;;;;5088352;27;20495;-68
2022/11/03 11:57:23;;;;;;;3.65;0.40;;;14.90;99.90;;;;;;5091391;27;20036;-68
2022/11/03 11:59:50;;;;;;;3.60;0.63;;;14.90;99.90;;;;;;5086212;28;20032;-69
2022/11/03 12:02:22;;;;;;;5.70;0.82;;;15.00;99.90;;;;;;5082975;28;20560;-69
2022/11/03 12:04:53;;;;;;;4.05;0.70;;;15.00;99.90;;;;;;5084273;28;20036;-69
2022/11/03 12:07:32;;;;;;;4.68;0.40;;;15.10;99.90;;;;;;5082496;28;20032;-68
2022/11/03 12:10:21;;;;;;;2.08;0.38;;;15.10;99.90;;;;;;5086164;27;20032;-69
2022/11/03 12:12:48;;;;;;;3.42;0.65;;;15.10;99.90;;;;;;5097116;28;20084;-70
2022/11/03 12:15:51;;;;;;;5.22;0.57;;;15.00;99.90;;;;;;5105910;27;20031;-69
2022/11/03 12:18:39;;;;;;;8.60;0.68;;;15.00;99.90;;;;;;5093584;28;20032;-70
2022/11/03 12:21:10;;;;;;;2.65;0.43;;;15.10;99.90;;;;;;5100282;28;20035;-69
2022/11/03 12:23:46;;;;;;;5.68;0.73;;;15.10;99.90;;;;;;5105662;28;20035;-68
2022/11/03 12:26:34;;;;;;;2.25;0.55;;;15.10;99.90;;;;;;5103692;28;20028;-70
2022/11/03 12:29:00;;;;;;;1.38;0.32;;;15.20;99.90;;;;;;5099755;28;20403;-69
2022/11/03 12:31:25;;;;;;;4.13;0.80;;;15.20;99.90;;;;;;5103709;28;20040;-69
2022/11/03 12:33:51;;;;;;;2.80;0.82;;;15.20;99.90;;;;;;5105241;28;20035;-68
2022/11/03 12:36:16;;;;;;;2.15;0.65;;;15.20;99.90;;;;;;5104863;28;20027;-70
2022/11/03 12:38:42;;;;;;;3.00;0.80;;;15.10;99.90;;;;;;5104288;28;20488;-69
2022/11/03 12:41:25;;;;;;;9.85;1.27;;;15.10;99.90;;;;;;5105091;28;20559;-68
2022/11/03 12:43:52;;;;;;;5.70;1.27;;;15.10;99.90;;;;;;5105094;28;20028;-69
2022/11/03 12:46:19;;;;;;;4.55;0.80;;;15.10;99.90;;;;;;5104787;28;20040;-68
2022/11/03 12:48:46;;;;;;;3.67;1.40;;;15.10;99.90;;;;;;5105458;28;20548;-70
2022/11/03 12:51:16;;;;;;;4.00;0.70;;;15.20;99.90;;;;;;5103221;28;20035;-69
2022/11/03 12:53:42;;;;;;;6.38;1.10;;;15.30;99.90;;;;;;5103548;28;20487;-70
2022/11/03 12:56:09;;;;;;;4.03;1.15;;;15.40;99.90;;;;;;5104924;28;20043;-69
2022/11/03 12:58:35;;;;;;;2.72;0.57;;;15.50;99.90;;;;;;5105692;28;20027;-69
2022/11/03 13:01:00;;;;;;;4.28;0.98;;;15.50;99.90;;;;;;5105591;28;20833;-69
2022/11/03 13:03:27;;;;;;;10.57;1.95;;;15.60;99.90;;;;;;5099218;28;20089;-70
2022/11/03 13:05:52;;;;;;;2.33;0.60;;;15.70;99.90;;;;;;5099795;28;20472;-68
2022/11/03 13:08:18;;;;;;;3.78;0.73;;;15.70;99.90;;;;;;5104719;28;20119;-69
2022/11/03 13:10:43;;;;;;;1.15;0.52;;;15.70;99.90;;;;;;5099446;28;20050;-69
2022/11/03 13:13:09;;;;;;;4.22;0.75;;;15.50;99.90;;;;;;5103666;28;20578;-69
2022/11/03 13:15:35;;;;;;;3.45;0.55;;;15.60;99.90;;;;;;5102386;28;20028;-69
2022/11/03 13:18:01;;;;;;;4.05;0.82;;;15.50;99.90;;;;;;5105648;28;20035;-70